Time;durP1;ratioP1;P1;durP2;ratioP2;P2;SDS_P1;SDS_P2;PMS_P1;PMS_P2;Temp;Humidity;BMP_temperature;BMP_pressure;BME280_temperature;BME280_humidity;BME280_pressure;Samples;Min_cycle;Max_cycle;Signal;HPM_P1;HPM_P2
2022/11/19 00:00:24;;;;;;;;;;;11.90;77.20;;;;;;5043314;28;87917;-39
2022/11/19 00:02:52;;;;;;;;;;;11.90;77.50;;;;;;5045727;28;88141;-39
2022/11/19 00:05:18;;;;;;;;;;;11.90;77.10;;;;;;5042798;28;87459;-39
2022/11/19 00:07:43;;;;;;;;;;;11.90;76.90;;;;;;5042683;28;88191;-39
2022/11/19 00:10:09;;;;;;;;;;;11.90;77.20;;;;;;5043329;28;87190;-39
2022/11/19 00:15:18;;;;;;;;;;;11.90;76.40;;;;;;5043305;28;86563;-39
2022/11/19 00:17:43;;;;;;;;;;;11.80;76.80;;;;;;5043054;28;87219;-39
2022/11/19 00:20:09;;;;;;;;;;;11.90;77.20;;;;;;5043100;28;87423;-39
2022/11/19 00:22:35;;;;;;;;;;;11.90;77.20;;;;;;5041690;28;88959;-39
2022/11/19 00:25:00;;;;;;;;;;;11.90;76.80;;;;;;5045802;28;86877;-39
2022/11/19 00:27:25;;;;;;;;;;;11.90;77.20;;;;;;5042234;28;88294;-39
2022/11/19 00:29:51;;;;;;;;;;;11.90;76.90;;;;;;5042937;28;87100;-39
2022/11/19 00:32:16;;;;;;;;;;;11.90;76.80;;;;;;5042807;28;87280;-39
2022/11/19 00:34:42;;;;;;;;;;;11.90;76.70;;;;;;5042220;28;87311;-39
2022/11/19 00:37:08;;;;;;;;;;;11.90;76.50;;;;;;5042883;28;87125;-39
2022/11/19 00:39:33;;;;;;;;;;;11.90;76.40;;;;;;5043261;27;87321;-39
2022/11/19 00:41:59;;;;;;;;;;;11.90;76.20;;;;;;5042294;28;87264;-39
2022/11/19 00:44:24;;;;;;;;;;;11.90;76.00;;;;;;5045185;28;87159;-39
2022/11/19 00:46:50;;;;;;;;;;;11.90;75.80;;;;;;5041528;28;89002;-39
2022/11/19 00:49:15;;;;;;;;;;;11.90;75.60;;;;;;5042446;28;87010;-39
2022/11/19 00:51:41;;;;;;;;;;;11.90;75.60;;;;;;5042690;28;87542;-39
2022/11/19 00:54:06;;;;;;;;;;;11.90;75.50;;;;;;5042010;28;88170;-39
2022/11/19 00:56:32;;;;;;;;;;;11.90;75.40;;;;;;5042594;28;87126;-39
2022/11/19 00:58:57;;;;;;;;;;;11.90;75.30;;;;;;5042554;28;87546;-39
2022/11/19 01:01:23;;;;;;;;;;;11.90;75.30;;;;;;5042157;28;88028;-39
2022/11/19 01:03:49;;;;;;;;;;;11.90;75.20;;;;;;5042775;28;86436;-39
2022/11/19 01:06:18;;;;;;;;;;;11.90;75.20;;;;;;5045093;27;86895;-39
2022/11/19 01:08:44;;;;;;;;;;;11.90;75.10;;;;;;5042309;28;87544;-39
2022/11/19 01:11:20;;;;;;;;;;;11.90;75.20;;;;;;5041762;28;87953;-40
2022/11/19 01:13:46;;;;;;;;;;;11.90;75.10;;;;;;5041876;28;87983;-40
2022/11/19 01:16:13;;;;;;;;;;;11.80;75.00;;;;;;5042341;28;87198;-40
2022/11/19 01:18:39;;;;;;;;;;;11.90;75.00;;;;;;5040683;28;88959;-39
2022/11/19 01:21:05;;;;;;;;;;;11.90;75.00;;;;;;5041936;28;87742;-39
2022/11/19 01:23:32;;;;;;;;;;;11.80;74.90;;;;;;5042134;28;87095;-40
2022/11/19 01:25:57;;;;;;;;;;;11.80;74.80;;;;;;5041877;27;88813;-39
2022/11/19 01:28:23;;;;;;;;;;;11.80;74.80;;;;;;5044816;28;88544;-40
2022/11/19 01:30:48;;;;;;;;;;;11.80;74.80;;;;;;5042174;28;87009;-40
2022/11/19 01:33:14;;;;;;;;;;;11.80;74.80;;;;;;5041567;28;88310;-40
2022/11/19 01:35:39;;;;;;;;;;;11.80;74.80;;;;;;5041109;28;88120;-40
2022/11/19 01:38:05;;;;;;;;;;;11.80;74.80;;;;;;5041755;28;88385;-40
2022/11/19 01:40:31;;;;;;;;;;;11.80;74.70;;;;;;5041551;28;87890;-39
2022/11/19 01:42:57;;;;;;;;;;;11.80;74.70;;;;;;5041897;28;87125;-40
2022/11/19 01:45:28;;;;;;;;;;;11.80;74.70;;;;;;5041405;28;87386;-39
2022/11/19 01:47:54;;;;;;;;;;;11.80;74.70;;;;;;5043164;27;87383;-40
2022/11/19 01:50:21;;;;;;;;;;;11.80;74.70;;;;;;5048288;28;87110;-40
2022/11/19 01:52:47;;;;;;;;;;;11.80;74.70;;;;;;5045580;28;87259;-40
2022/11/19 01:55:13;;;;;;;;;;;11.80;74.70;;;;;;5045438;28;87230;-40
2022/11/19 01:57:39;;;;;;;;;;;11.80;74.70;;;;;;5045460;27;87111;-40
2022/11/19 02:00:05;;;;;;;;;;;11.80;74.70;;;;;;5044174;28;88639;-40
2022/11/19 02:02:31;;;;;;;;;;;11.70;74.60;;;;;;5044706;28;87161;-40
2022/11/19 02:04:57;;;;;;;;;;;11.80;74.60;;;;;;5045045;28;87896;-40
2022/11/19 02:07:27;;;;;;;;;;;11.70;74.70;;;;;;5044694;28;87999;-40
2022/11/19 02:10:03;;;;;;;;;;;11.70;74.60;;;;;;5044691;28;87007;-40
2022/11/19 02:12:29;;;;;;;;;;;11.70;74.60;;;;;;5047493;27;87330;-40
2022/11/19 02:15:21;;;;;;;;;;;11.80;74.70;;;;;;5044664;28;87103;-40
2022/11/19 02:18:06;;;;;;;;;;;11.70;74.50;;;;;;5028195;27;87406;-40
2022/11/19 02:20:46;;;;;;;;;;;11.80;74.50;;;;;;5044328;28;88069;-40
2022/11/19 02:23:12;;;;;;;;;;;11.80;74.50;;;;;;5044746;28;87135;-40
2022/11/19 02:25:37;;;;;;;;;;;11.80;74.40;;;;;;5044171;28;87908;-40
2022/11/19 02:28:06;;;;;;;;;;;11.70;74.40;;;;;;5044298;28;87712;-40
2022/11/19 02:30:36;;;;;;;;;;;11.80;74.40;;;;;;5044701;28;87024;-40
2022/11/19 02:33:06;;;;;;;;;;;11.80;74.30;;;;;;5047102;27;87454;-40
2022/11/19 02:35:41;;;;;;;;;;;11.80;74.20;;;;;;5044383;28;87156;-40
2022/11/19 02:38:12;;;;;;;;;;;11.70;74.30;;;;;;5044370;27;87008;-40
2022/11/19 02:40:40;;;;;;;;;;;11.70;74.40;;;;;;5044396;28;87987;-40
2022/11/19 02:43:25;;;;;;;;;;;11.70;74.30;;;;;;5044863;28;86384;-40
2022/11/19 02:45:57;;;;;;;;;;;11.70;74.30;;;;;;5043759;28;87464;-39
2022/11/19 02:48:24;;;;;;;;;;;11.70;74.20;;;;;;5043775;28;88266;-40
2022/11/19 02:50:51;;;;;;;;;;;11.70;74.30;;;;;;5043881;28;88041;-40
2022/11/19 02:53:17;;;;;;;;;;;11.70;74.30;;;;;;5044436;28;88460;-40
2022/11/19 03:06:41;;;;;;;;;;;11.60;74.40;;;;;;5044392;28;87033;-40
2022/11/19 03:09:07;;;;;;;;;;;11.60;74.50;;;;;;5044120;28;86439;-40
2022/11/19 03:11:32;;;;;;;;;;;11.60;74.40;;;;;;5043726;28;87263;-40
2022/11/19 03:16:53;;;;;;;;;;;11.60;74.40;;;;;;5043089;28;88180;-40
2022/11/19 03:19:23;;;;;;;;;;;11.60;74.40;;;;;;5047006;28;86901;-40
2022/11/19 03:21:52;;;;;;;;;;;11.60;74.30;;;;;;5043205;28;88035;-40
2022/11/19 03:24:21;;;;;;;;;;;11.60;74.30;;;;;;5043678;28;87058;-40
2022/11/19 03:26:52;;;;;;;;;;;11.60;74.20;;;;;;5043833;28;86972;-40
2022/11/19 03:29:19;;;;;;;;;;;11.70;74.20;;;;;;5043418;28;88001;-40
2022/11/19 03:31:48;;;;;;;;;;;11.70;74.10;;;;;;5043607;28;87075;-40
2022/11/19 03:34:19;;;;;;;;;;;11.70;74.20;;;;;;5043873;27;87377;-40
2022/11/19 03:36:46;;;;;;;;;;;11.70;74.00;;;;;;5043480;28;87711;-40
2022/11/19 03:39:15;;;;;;;;;;;11.60;74.00;;;;;;5043545;28;87044;-40
2022/11/19 03:41:42;;;;;;;;;;;11.60;74.00;;;;;;5045593;27;87915;-40
2022/11/19 03:44:12;;;;;;;;;;;11.60;74.00;;;;;;5042954;28;87117;-40
2022/11/19 03:46:38;;;;;;;;;;;11.70;74.00;;;;;;5043521;27;87490;-40
2022/11/19 03:49:05;;;;;;;;;;;11.70;73.80;;;;;;5042851;28;88062;-40
2022/11/19 03:51:40;;;;;;;;;;;11.70;73.80;;;;;;5043341;28;87058;-40
2022/11/19 03:54:06;;;;;;;;;;;11.70;73.80;;;;;;5043068;27;87786;-40
2022/11/19 03:56:33;;;;;;;;;;;11.70;73.80;;;;;;5042965;28;88241;-40
2022/11/19 03:58:59;;;;;;;;;;;11.70;73.80;;;;;;5043889;28;86369;-40
2022/11/19 04:01:24;;;;;;;;;;;11.70;73.80;;;;;;5043501;28;87236;-40
2022/11/19 04:06:34;;;;;;;;;;;11.60;73.80;;;;;;5042950;28;87885;-40
2022/11/19 04:08:59;;;;;;;;;;;11.60;73.80;;;;;;5042871;28;87958;-40
2022/11/19 04:11:25;;;;;;;;;;;11.70;74.10;;;;;;5042696;27;86993;-40
2022/11/19 04:13:50;;;;;;;;;;;11.70;73.80;;;;;;5042227;27;88714;-40
2022/11/19 04:16:15;;;;;;;;;;;11.60;73.70;;;;;;5042007;28;87970;-40
2022/11/19 04:18:41;;;;;;;;;;;11.60;73.70;;;;;;5042570;28;87028;-40
2022/11/19 04:21:06;;;;;;;;;;;11.70;73.80;;;;;;5042847;28;87673;-40
2022/11/19 04:23:32;;;;;;;;;;;11.60;73.80;;;;;;5042849;28;87426;-40
2022/11/19 04:25:57;;;;;;;;;;;11.60;73.80;;;;;;5045405;28;87143;-40
2022/11/19 04:28:23;;;;;;;;;;;11.60;73.80;;;;;;5041816;28;88072;-40
2022/11/19 04:30:48;;;;;;;;;;;11.60;73.80;;;;;;5041616;28;88094;-40
2022/11/19 04:33:14;;;;;;;;;;;11.60;73.80;;;;;;5042396;28;88395;-40
2022/11/19 04:35:42;;;;;;;;;;;11.60;73.80;;;;;;5041619;28;88938;-40
2022/11/19 04:38:08;;;;;;;;;;;11.60;74.30;;;;;;5042005;28;87097;-40
2022/11/19 04:40:33;;;;;;;;;;;11.60;73.80;;;;;;5042262;28;87707;-40
2022/11/19 04:42:59;;;;;;;;;;;11.60;73.70;;;;;;5042090;28;88096;-40
2022/11/19 04:45:25;;;;;;;;;;;11.60;73.70;;;;;;5044136;28;87158;-40
2022/11/19 04:47:50;;;;;;;;;;;11.60;73.70;;;;;;5042424;28;87282;-40
2022/11/19 04:50:16;;;;;;;;;;;11.60;73.60;;;;;;5042002;28;87102;-40
2022/11/19 04:52:41;;;;;;;;;;;11.60;73.60;;;;;;5042078;28;87400;-40
2022/11/19 04:55:08;;;;;;;;;;;11.60;73.80;;;;;;5040881;28;88950;-40
2022/11/19 04:57:33;;;;;;;;;;;11.60;73.80;;;;;;5042094;28;87129;-40
2022/11/19 04:59:59;;;;;;;;;;;11.60;73.80;;;;;;5041999;28;87509;-40
2022/11/19 05:02:24;;;;;;;;;;;11.60;73.80;;;;;;5041200;28;89589;-40
2022/11/19 05:04:50;;;;;;;;;;;11.60;73.80;;;;;;5041919;28;87169;-40
2022/11/19 05:07:15;;;;;;;;;;;11.60;73.70;;;;;;5044440;28;87456;-39
2022/11/19 05:09:41;;;;;;;;;;;11.50;73.60;;;;;;5041934;28;86974;-40
2022/11/19 05:12:06;;;;;;;;;;;11.60;73.80;;;;;;5042684;28;87484;-40
2022/11/19 05:14:32;;;;;;;;;;;11.50;73.70;;;;;;5041962;28;88355;-40
2022/11/19 05:16:57;;;;;;;;;;;11.60;73.70;;;;;;5042243;28;87381;-40
2022/11/19 05:19:23;;;;;;;;;;;11.50;73.70;;;;;;5041811;27;87880;-40
2022/11/19 05:21:48;;;;;;;;;;;11.50;73.70;;;;;;5042030;27;87993;-40
2022/11/19 05:24:14;;;;;;;;;;;11.50;73.70;;;;;;5045719;28;87242;-39
2022/11/19 05:26:39;;;;;;;;;;;11.50;73.70;;;;;;5045545;27;88695;-40
2022/11/19 05:29:05;;;;;;;;;;;11.50;73.70;;;;;;5048082;28;88059;-40
2022/11/19 05:31:30;;;;;;;;;;;11.50;73.70;;;;;;5045651;28;87388;-40
2022/11/19 05:33:56;;;;;;;;;;;11.50;73.70;;;;;;5045272;28;88140;-40
2022/11/19 05:36:21;;;;;;;;;;;11.50;73.70;;;;;;5046043;28;87199;-40
2022/11/19 05:38:46;;;;;;;;;;;11.50;73.70;;;;;;5045705;28;87147;-40
2022/11/19 05:41:12;;;;;;;;;;;11.50;73.70;;;;;;5045254;28;87894;-40
2022/11/19 05:43:37;;;;;;;;;;;11.50;73.80;;;;;;5044783;28;88031;-40
2022/11/19 05:46:03;;;;;;;;;;;11.50;73.70;;;;;;5044915;28;88322;-40
2022/11/19 05:48:29;;;;;;;;;;;11.40;73.80;;;;;;5045257;28;88037;-40
2022/11/19 05:50:54;;;;;;;;;;;11.50;73.80;;;;;;5048286;28;87090;-40
2022/11/19 05:53:20;;;;;;;;;;;11.50;73.70;;;;;;5044682;28;89260;-40
2022/11/19 05:55:45;;;;;;;;;;;11.50;73.70;;;;;;5045117;28;87141;-40
2022/11/19 05:58:12;;;;;;;;;;;11.40;73.70;;;;;;5045193;28;86948;-40
2022/11/19 06:00:38;;;;;;;;;;;11.40;73.70;;;;;;5045530;28;87487;-40
2022/11/19 06:03:03;;;;;;;;;;;11.40;73.80;;;;;;5045122;28;87163;-40
2022/11/19 06:05:29;;;;;;;;;;;11.40;73.90;;;;;;5045273;28;87039;-40
2022/11/19 06:07:54;;;;;;;;;;;11.40;73.90;;;;;;5044009;28;88925;-40
2022/11/19 06:10:19;;;;;;;;;;;11.40;73.70;;;;;;5044787;28;87191;-40
2022/11/19 06:12:45;;;;;;;;;;;11.40;73.80;;;;;;5047285;28;87436;-40
2022/11/19 06:15:11;;;;;;;;;;;11.40;73.70;;;;;;5044420;28;87204;-40
2022/11/19 06:17:36;;;;;;;;;;;11.50;73.70;;;;;;5044408;27;87264;-40
2022/11/19 06:20:02;;;;;;;;;;;11.40;73.70;;;;;;5044290;28;87301;-40
2022/11/19 06:22:27;;;;;;;;;;;11.40;73.70;;;;;;5044691;28;87117;-40
2022/11/19 06:24:53;;;;;;;;;;;11.40;73.70;;;;;;5045371;28;87390;-40
2022/11/19 06:27:18;;;;;;;;;;;11.40;73.70;;;;;;5044374;28;87880;-40
2022/11/19 06:29:44;;;;;;;;;;;11.40;73.70;;;;;;5044537;28;86974;-40
2022/11/19 06:32:10;;;;;;;;;;;11.40;73.70;;;;;;5043436;27;88798;-40
2022/11/19 06:34:35;;;;;;;;;;;11.40;73.60;;;;;;5046562;27;89717;-40
2022/11/19 06:37:01;;;;;;;;;;;11.40;73.60;;;;;;5044622;28;87410;-40
2022/11/19 06:39:26;;;;;;;;;;;11.40;73.60;;;;;;5044186;28;88320;-40
2022/11/19 06:41:52;;;;;;;;;;;11.40;73.60;;;;;;5044240;28;88324;-40
2022/11/19 06:44:17;;;;;;;;;;;11.40;73.60;;;;;;5043455;27;87981;-40
2022/11/19 06:46:43;;;;;;;;;;;11.40;73.50;;;;;;5043922;28;88052;-40
2022/11/19 06:49:08;;;;;;;;;;;11.40;73.60;;;;;;5044541;28;86205;-40
2022/11/19 06:51:34;;;;;;;;;;;11.40;73.60;;;;;;5044398;27;86901;-40
2022/11/19 06:54:00;;;;;;;;;;;11.40;73.70;;;;;;5046905;28;88162;-40
2022/11/19 06:56:25;;;;;;;;;;;11.40;73.70;;;;;;5043738;28;88081;-40
2022/11/19 06:58:54;;;;;;;;;;;11.40;73.70;;;;;;5043848;28;88174;-39
2022/11/19 07:01:20;;;;;;;;;;;11.30;73.70;;;;;;5043783;28;87082;-40
2022/11/19 07:03:45;;;;;;;;;;;11.30;73.70;;;;;;5044179;28;87905;-40
2022/11/19 07:06:11;;;;;;;;;;;11.40;73.70;;;;;;5043874;28;87476;-40
2022/11/19 07:08:38;;;;;;;;;;;11.40;73.70;;;;;;5044275;28;87144;-40
2022/11/19 07:11:24;;;;;;;;;;;11.30;73.80;;;;;;5043949;27;88502;-40
2022/11/19 07:13:58;;;;;;;;;;;11.30;73.80;;;;;;5043749;27;88082;-40
2022/11/19 07:16:25;;;;;;;;;;;11.30;73.80;;;;;;5047095;28;87041;-40
2022/11/19 07:18:51;;;;;;;;;;;11.40;73.70;;;;;;5043702;28;87949;-40
2022/11/19 07:21:16;;;;;;;;;;;11.30;73.70;;;;;;5042887;28;88756;-39
2022/11/19 07:23:42;;;;;;;;;;;11.30;73.70;;;;;;5043635;28;88518;-40
2022/11/19 07:26:07;;;;;;;;;;;11.30;73.80;;;;;;5043642;28;87989;-40
2022/11/19 07:28:33;;;;;;;;;;;11.30;73.90;;;;;;5043452;28;87358;-40
2022/11/19 07:31:02;;;;;;;;;;;11.30;73.90;;;;;;5044051;27;87130;-40
2022/11/19 07:33:28;;;;;;;;;;;11.30;73.90;;;;;;5043319;28;88087;-40
2022/11/19 07:35:53;;;;;;;;;;;11.30;74.00;;;;;;5043733;28;87192;-40
2022/11/19 07:38:19;;;;;;;;;;;11.30;74.00;;;;;;5046806;28;87706;-40
2022/11/19 07:40:51;;;;;;;;;;;11.30;74.00;;;;;;5043523;28;87149;-40
2022/11/19 07:43:16;;;;;;;;;;;11.20;73.90;;;;;;5043727;27;87394;-40
2022/11/19 07:45:42;;;;;;;;;;;11.30;73.90;;;;;;5041288;27;88541;-40
2022/11/19 07:48:07;;;;;;;;;;;11.30;74.00;;;;;;5043457;28;87107;-40
2022/11/19 07:50:33;;;;;;;;;;;11.30;74.00;;;;;;5043597;28;86869;-40
2022/11/19 07:52:58;;;;;;;;;;;11.30;73.90;;;;;;5043104;28;88029;-40
2022/11/19 07:55:24;;;;;;;;;;;11.30;73.80;;;;;;5043386;28;86995;-40
2022/11/19 07:57:51;;;;;;;;;;;11.30;73.80;;;;;;5043270;28;87380;-40
2022/11/19 08:00:17;;;;;;;;;;;11.30;73.80;;;;;;5045648;28;87536;-40
2022/11/19 08:02:42;;;;;;;;;;;11.30;73.70;;;;;;5043808;27;87350;-40
2022/11/19 08:05:08;;;;;;;;;;;11.30;73.60;;;;;;5043006;28;88112;-40
2022/11/19 08:07:35;;;;;;;;;;;11.30;73.80;;;;;;5043342;28;87109;-40
2022/11/19 08:10:01;;;;;;;;;;;11.30;73.80;;;;;;5042865;27;87997;-40
2022/11/19 08:12:28;;;;;;;;;;;11.30;73.70;;;;;;5042511;28;87935;-40
2022/11/19 08:14:53;;;;;;;;;;;11.30;73.80;;;;;;5042807;28;87003;-40
2022/11/19 08:20:03;;;;;;;;;;;11.40;73.70;;;;;;5042597;28;87235;-40
2022/11/19 08:22:28;;;;;;;;;;;11.40;73.70;;;;;;5045898;28;87093;-39
2022/11/19 08:24:54;;;;;;;;;;;11.40;73.70;;;;;;5042404;28;87930;-39
2022/11/19 08:27:19;;;;;;;;;;;11.30;73.80;;;;;;5043004;28;86402;-39
2022/11/19 08:29:45;;;;;;;;;;;11.40;73.70;;;;;;5042762;28;87384;-40
2022/11/19 08:32:10;;;;;;;;;;;11.40;73.70;;;;;;5042608;28;88059;-40
2022/11/19 08:34:36;;;;;;;;;;;11.30;73.80;;;;;;5041934;28;88132;-40
2022/11/19 08:37:01;;;;;;;;;;;11.40;73.80;;;;;;5042651;28;88314;-39
2022/11/19 08:39:27;;;;;;;;;;;11.40;73.80;;;;;;5042331;28;88124;-40
2022/11/19 08:44:36;;;;;;;;;;;11.40;73.80;;;;;;5044854;28;87164;-39
2022/11/19 08:47:02;;;;;;;;;;;11.40;73.80;;;;;;5042635;28;87083;-40
2022/11/19 08:49:27;;;;;;;;;;;11.40;73.80;;;;;;5042352;27;87713;-39
2022/11/19 08:51:53;;;;;;;;;;;11.40;73.70;;;;;;5042805;28;87183;-39
2022/11/19 08:54:19;;;;;;;;;;;11.40;73.70;;;;;;5042345;28;87108;-39
2022/11/19 08:56:44;;;;;;;;;;;11.40;73.70;;;;;;5042924;27;87231;-39
2022/11/19 08:59:10;;;;;;;;;;;11.40;73.60;;;;;;5044853;28;89079;-39
2022/11/19 09:01:35;;;;;;;;;;;11.50;73.60;;;;;;5046210;28;87206;-39
2022/11/19 09:04:00;;;;;;;;;;;11.40;73.60;;;;;;5048657;28;87472;-39
2022/11/19 09:06:26;;;;;;;;;;;11.50;73.70;;;;;;5046180;28;87105;-39
2022/11/19 09:08:51;;;;;;;;;;;11.50;73.60;;;;;;5045917;28;87322;-39
2022/11/19 09:11:18;;;;;;;;;;;11.50;74.20;;;;;;5045812;28;87217;-39
2022/11/19 09:13:44;;;;;;;;;;;11.50;73.60;;;;;;5046013;28;87042;-39
2022/11/19 09:16:09;;;;;;;;;;;11.50;73.60;;;;;;5046186;28;87735;-39
2022/11/19 09:18:38;;;;;;;;;;;11.50;73.60;;;;;;5045452;28;89217;-39
2022/11/19 09:21:04;;;;;;;;;;;11.50;73.70;;;;;;5045731;28;87729;-40
2022/11/19 09:23:29;;;;;;;;;;;11.50;73.70;;;;;;5045301;27;88413;-39
2022/11/19 09:26:00;;;;;;;;;;;11.50;73.70;;;;;;5048281;28;88183;-39
2022/11/19 09:28:26;;;;;;;;;;;11.50;73.70;;;;;;5045241;28;88910;-39
2022/11/19 09:31:01;;;;;;;;;;;11.50;73.70;;;;;;5045198;28;88206;-39
2022/11/19 09:33:30;;;;;;;;;;;11.50;73.70;;;;;;5045541;28;86987;-39
2022/11/19 09:35:56;;;;;;;;;;;11.50;73.80;;;;;;5045017;27;89706;-39
2022/11/19 09:38:21;;;;;;;;;;;11.50;73.80;;;;;;5045037;28;89541;-39
2022/11/19 09:40:49;;;;;;;;;;;11.50;73.90;;;;;;5046018;28;86374;-39
2022/11/19 09:43:18;;;;;;;;;;;11.50;74.00;;;;;;5045540;28;86917;-39
2022/11/19 09:46:02;;;;;;;;;;;11.50;74.00;;;;;;5044145;28;89482;-39
2022/11/19 09:48:28;;;;;;;;;;;11.50;74.00;;;;;;5046010;28;88301;-39
2022/11/19 09:51:01;;;;;;;;;;;11.50;74.00;;;;;;5044977;28;87968;-39
2022/11/19 09:53:30;;;;;;;;;;;11.50;73.80;;;;;;5045092;28;87114;-39
2022/11/19 09:55:56;;;;;;;;;;;11.50;73.90;;;;;;5044832;27;89024;-39
2022/11/19 09:58:30;;;;;;;;;;;11.50;74.00;;;;;;5044703;28;89198;-39
2022/11/19 10:00:55;;;;;;;;;;;11.50;73.70;;;;;;5045042;28;87037;-39
2022/11/19 10:03:22;;;;;;;;;;;11.50;73.80;;;;;;5044635;27;88523;-39
2022/11/19 10:05:53;;;;;;;;;;;11.50;74.30;;;;;;5045155;28;87155;-39
2022/11/19 10:08:37;;;;;;;;;;;11.50;74.40;;;;;;5044481;28;87099;-39
2022/11/19 10:11:10;;;;;;;;;;;11.60;74.30;;;;;;5047725;27;87312;-39
2022/11/19 10:13:54;;;;;;;;;;;11.60;74.20;;;;;;5044262;28;88029;-39
2022/11/19 10:16:20;;;;;;;;;;;11.60;74.20;;;;;;5044775;27;88070;-39
2022/11/19 10:18:48;;;;;;;;;;;11.60;74.40;;;;;;5044577;28;87797;-39
2022/11/19 10:21:32;;;;;;;;;;;11.70;74.50;;;;;;5044796;28;87161;-39
2022/11/19 10:23:59;;;;;;;;;;;11.70;74.40;;;;;;5044833;28;87601;-39
2022/11/19 10:26:35;;;;;;;;;;;11.70;74.60;;;;;;5044507;28;88010;-39
2022/11/19 10:29:02;;;;;;;;;;;11.70;74.70;;;;;;5044466;28;87066;-40
2022/11/19 10:31:36;;;;;;;;;;;11.70;74.70;;;;;;5045189;27;86496;-39
2022/11/19 10:34:16;;;;;;;;;;;11.70;74.70;;;;;;5047080;28;87951;-39
2022/11/19 10:36:43;;;;;;;;;;;11.70;74.80;;;;;;5044411;27;86990;-39
2022/11/19 10:39:08;;;;;;;;;;;11.70;74.90;;;;;;5043515;28;89116;-39
2022/11/19 10:41:44;;;;;;;;;;;11.70;75.10;;;;;;5044470;28;87060;-39
2022/11/19 10:44:36;;;;;;;;;;;11.70;75.10;;;;;;5044024;27;88665;-39
2022/11/19 10:47:01;;;;;;;;;;;11.70;75.20;;;;;;5043645;28;88553;-39
2022/11/19 10:49:26;;;;;;;;;;;11.80;75.20;;;;;;5044126;28;87003;-39
2022/11/19 10:51:52;;;;;;;;;;;11.80;75.20;;;;;;5044470;28;87258;-39
2022/11/19 10:54:22;;;;;;;;;;;11.80;75.40;;;;;;5043988;28;88283;-39
2022/11/19 10:56:49;;;;;;;;;;;11.80;75.50;;;;;;5047845;28;86463;-39
2022/11/19 10:59:19;;;;;;;;;;;11.80;75.60;;;;;;5043989;28;87500;-39
2022/11/19 11:01:49;;;;;;;;;;;11.80;75.50;;;;;;5044013;28;87015;-39
2022/11/19 11:04:20;;;;;;;;;;;11.80;75.50;;;;;;5043375;27;87914;-39
2022/11/19 11:06:56;;;;;;;;;;;11.90;75.70;;;;;;5043644;28;87148;-39
2022/11/19 11:09:33;;;;;;;;;;;11.90;75.60;;;;;;5044043;28;87205;-39
2022/11/19 11:15:11;;;;;;;;;;;11.90;75.70;;;;;;5041369;28;87470;-39
2022/11/19 11:17:37;;;;;;;;;;;11.90;75.80;;;;;;5046898;28;86992;-39
2022/11/19 11:20:18;;;;;;;;;;;11.90;75.90;;;;;;5042215;28;89171;-39
2022/11/19 11:22:45;;;;;;;;;;;12.00;75.90;;;;;;5044107;28;87302;-39
2022/11/19 11:25:20;;;;;;;;;;;11.90;76.30;;;;;;5043823;28;87192;-39
2022/11/19 11:28:01;;;;;;;;;;;11.90;76.20;;;;;;5043566;28;88145;-39
2022/11/19 11:30:27;;;;;;;;;;;12.00;76.20;;;;;;5043314;28;88019;-39
2022/11/19 11:32:52;;;;;;;;;;;12.00;77.00;;;;;;5043856;28;88341;-39
2022/11/19 11:35:37;;;;;;;;;;;12.00;76.40;;;;;;5043093;28;87956;-39
2022/11/19 11:38:04;;;;;;;;;;;12.00;76.30;;;;;;5043331;28;88072;-39
2022/11/19 11:40:30;;;;;;;;;;;12.00;76.30;;;;;;5046138;27;86969;-39
2022/11/19 11:42:56;;;;;;;;;;;12.00;76.30;;;;;;5043648;28;87102;-39
2022/11/19 11:45:28;;;;;;;;;;;12.10;76.30;;;;;;5042951;28;87688;-39
2022/11/19 11:47:55;;;;;;;;;;;12.10;76.50;;;;;;5043701;28;87282;-39
2022/11/19 11:50:22;;;;;;;;;;;12.10;76.60;;;;;;5043419;28;87310;-39
2022/11/19 11:52:52;;;;;;;;;;;12.10;76.60;;;;;;5043214;27;87604;-39
2022/11/19 11:55:23;;;;;;;;;;;12.10;76.60;;;;;;5042108;28;89019;-39
2022/11/19 11:57:49;;;;;;;;;;;12.10;76.70;;;;;;5043464;28;87185;-39
2022/11/19 12:00:27;;;;;;;;;;;12.10;76.60;;;;;;5042991;28;87397;-39
2022/11/19 12:03:03;;;;;;;;;;;12.10;76.70;;;;;;5045950;28;88255;-39
2022/11/19 12:05:55;;;;;;;;;;;12.10;76.80;;;;;;5043242;27;87303;-39
2022/11/19 12:08:26;;;;;;;;;;;12.10;76.90;;;;;;5025404;28;87955;-39
2022/11/19 12:11:01;;;;;;;;;;;12.10;77.00;;;;;;5043026;28;87127;-39
2022/11/19 12:13:26;;;;;;;;;;;12.10;77.40;;;;;;5043763;27;86509;-39
2022/11/19 12:15:52;;;;;;;;;;;12.20;77.40;;;;;;5042562;28;88257;-39
2022/11/19 12:18:36;;;;;;;;;;;12.10;77.00;;;;;;5043004;28;87024;-39
2022/11/19 12:21:04;;;;;;;;;;;12.20;77.20;;;;;;5042402;27;87955;-39
2022/11/19 12:23:48;;;;;;;;;;;12.20;77.30;;;;;;5042499;28;87260;-39
2022/11/19 12:26:25;;;;;;;;;;;12.20;77.30;;;;;;5045901;28;87097;-39
2022/11/19 12:28:50;;;;;;;;;;;12.20;77.20;;;;;;5042415;28;88079;-39
2022/11/19 12:31:28;;;;;;;;;;;12.20;77.30;;;;;;5042352;28;87097;-39
2022/11/19 12:34:04;;;;;;;;;;;12.20;77.20;;;;;;5042638;28;87374;-39
2022/11/19 12:36:30;;;;;;;;;;;12.20;77.30;;;;;;5042284;28;88044;-40
2022/11/19 12:39:00;;;;;;;;;;;12.30;77.40;;;;;;5043456;28;86397;-39
2022/11/19 12:41:45;;;;;;;;;;;12.20;77.30;;;;;;5042948;27;87066;-39
2022/11/19 12:44:13;;;;;;;;;;;12.30;77.60;;;;;;5041708;27;88728;-40
2022/11/19 12:46:38;;;;;;;;;;;12.30;77.50;;;;;;5042097;28;87945;-39
2022/11/19 12:49:10;;;;;;;;;;;12.30;77.70;;;;;;5045160;28;87498;-39
2022/11/19 12:51:45;;;;;;;;;;;12.30;77.40;;;;;;5042615;28;87122;-39
2022/11/19 12:54:18;;;;;;;;;;;12.30;77.40;;;;;;5042731;27;87453;-39
2022/11/19 12:56:57;;;;;;;;;;;12.30;77.40;;;;;;5041759;28;87888;-39
2022/11/19 12:59:37;;;;;;;;;;;12.30;77.40;;;;;;5042732;28;86986;-39
2022/11/19 13:02:06;;;;;;;;;;;12.30;77.50;;;;;;5042256;27;87599;-39
2022/11/19 13:04:37;;;;;;;;;;;12.30;77.50;;;;;;5042517;28;87592;-39
2022/11/19 13:07:10;;;;;;;;;;;12.40;77.50;;;;;;5042214;28;87030;-39
2022/11/19 13:09:42;;;;;;;;;;;12.40;77.50;;;;;;5045148;27;87311;-39
2022/11/19 13:12:11;;;;;;;;;;;12.40;77.60;;;;;;5041349;28;88025;-39
2022/11/19 13:14:41;;;;;;;;;;;12.40;77.50;;;;;;5042050;27;87876;-39
2022/11/19 13:17:18;;;;;;;;;;;12.40;77.50;;;;;;5041851;28;87956;-39
2022/11/19 13:19:45;;;;;;;;;;;12.40;77.50;;;;;;5041844;28;87013;-39
2022/11/19 13:22:19;;;;;;;;;;;12.40;77.50;;;;;;5042177;27;87319;-39
2022/11/19 13:24:48;;;;;;;;;;;12.40;77.60;;;;;;5041734;28;87633;-39
2022/11/19 13:27:16;;;;;;;;;;;12.40;77.60;;;;;;5042070;28;87115;-39
2022/11/19 13:29:44;;;;;;;;;;;12.50;77.60;;;;;;5042298;28;86623;-39
2022/11/19 13:32:22;;;;;;;;;;;12.40;77.70;;;;;;5044260;28;88236;-39
2022/11/19 13:34:53;;;;;;;;;;;12.50;77.70;;;;;;5041801;27;87340;-39
2022/11/19 13:37:19;;;;;;;;;;;12.40;77.70;;;;;;5040912;28;88801;-39
2022/11/19 13:40:05;;;;;;;;;;;12.50;77.80;;;;;;5042029;28;87128;-39
2022/11/19 13:45:15;;;;;;;;;;;12.50;77.70;;;;;;5044793;28;87382;-39
2022/11/19 13:47:46;;;;;;;;;;;12.50;77.70;;;;;;5043881;28;87226;-39
2022/11/19 13:50:23;;;;;;;;;;;12.50;77.70;;;;;;5044985;27;88524;-39
2022/11/19 13:52:55;;;;;;;;;;;12.50;77.80;;;;;;5044845;28;88161;-39
2022/11/19 13:55:28;;;;;;;;;;;12.50;77.60;;;;;;5048427;28;86307;-39
2022/11/19 13:57:54;;;;;;;;;;;12.60;77.70;;;;;;5044933;28;88028;-39
2022/11/19 14:00:22;;;;;;;;;;;12.60;77.70;;;;;;5045215;28;87196;-39
2022/11/19 14:03:06;;;;;;;;;;;12.60;77.70;;;;;;5044550;27;88015;-39
2022/11/19 14:05:41;;;;;;;;;;;12.60;77.80;;;;;;5044788;27;87846;-39
2022/11/19 14:08:12;;;;;;;;;;;12.60;77.70;;;;;;5045152;28;86818;-39
2022/11/19 14:10:56;;;;;;;;;;;12.60;77.70;;;;;;5045011;27;87424;-40
2022/11/19 14:13:30;;;;;;;;;;;12.60;77.70;;;;;;5044755;28;87989;-39
2022/11/19 14:27:20;;;;;;;;;;;12.70;77.80;;;;;;5044479;28;86856;-39
2022/11/19 14:29:45;;;;;;;;;;;12.70;77.90;;;;;;5043765;28;88058;-39
2022/11/19 14:32:11;;;;;;;;;;;12.70;77.90;;;;;;5045018;28;88425;-39
2022/11/19 14:34:55;;;;;;;;;;;12.70;77.80;;;;;;5044040;28;89366;-39
2022/11/19 14:37:21;;;;;;;;;;;12.70;77.90;;;;;;5044673;27;87133;-39
2022/11/19 14:39:49;;;;;;;;;;;12.70;77.90;;;;;;5044641;28;87406;-39
2022/11/19 14:42:21;;;;;;;;;;;12.70;77.90;;;;;;5046916;28;88078;-39
2022/11/19 14:45:01;;;;;;;;;;;12.70;77.80;;;;;;5043742;27;88731;-39
2022/11/19 14:47:40;;;;;;;;;;;12.80;77.90;;;;;;5045032;28;87128;-39
2022/11/19 14:50:07;;;;;;;;;;;12.80;77.80;;;;;;5044352;28;87110;-39
2022/11/19 14:52:38;;;;;;;;;;;12.80;77.90;;;;;;5044585;28;87050;-39
2022/11/19 14:55:12;;;;;;;;;;;12.80;77.80;;;;;;5043003;27;90204;-39
2022/11/19 14:57:40;;;;;;;;;;;12.80;77.80;;;;;;5044443;28;87249;-39
2022/11/19 15:00:15;;;;;;;;;;;12.80;77.80;;;;;;5044236;27;87322;-39
2022/11/19 15:02:45;;;;;;;;;;;12.80;77.80;;;;;;5043687;28;89394;-39
2022/11/19 15:05:22;;;;;;;;;;;12.80;77.80;;;;;;5046908;28;87140;-39